ALS Fauna — 9V5676 — position and weather

sailwx.info

Track history (hours):
 
Tides and Currents Weather Stations Pressure Air Temp Water Temp Dewpoint Dewpoint Depression Visibility Wind Speed Wind Dir Waves Ship Positions

ALS Fauna

Last reported at 2018-Aug-03 18:54 UTC. Time now 2018-Aug-16 08:00 UTC.
Position S 34°49' E 018°50'.
Warning: this ship's position is 12 days out of date.

Length 261 m; draft 9.1 m.

Type: Cargo ship. MMSI: 563036600.

Date/timePositionNaut miles runAvg speedWind from/ knotsBaromVisibWave heightAir tempDewpointWater temp
2018-Aug-03 18:54S 34°49' E 018°50'614.8
2018-Aug-03 18:28S 34°46' E 018°43'714.6
2018-Aug-03 17:58S 34°43' E 018°34'714.5
2018-Aug-03 17:30S 34°41' E 018°27'714.8
2018-Aug-03 17:00S 34°38' E 018°19'714.7
2018-Aug-03 16:30S 34°35' E 018°10'713.5
2018-Aug-03 16:01S 34°30' E 018°05'714.3
2018-Aug-03 15:31S 34°24' E 018°01'714.2
2018-Aug-03 15:00S 34°17' E 017°57'714.3
2018-Aug-03 14:30S 34°11' E 017°53'714.5
2018-Aug-03 14:00S 34°05' E 017°48'714.7
2018-Aug-03 13:30S 33°58' E 017°45'714.6
2018-Aug-03 13:00S 33°52' E 017°41'814.7
2018-Aug-03 12:27S 33°44' E 017°36'  
Track history (hours):
 
Tides and Currents Weather Stations Pressure Air Temp Water Temp Dewpoint Dewpoint Depression Visibility Wind Speed Wind Dir Waves Ship Positions

ALS Fauna

Last reported at 2018-Aug-03 18:54 UTC. Time now 2018-Aug-16 08:00 UTC.
Position S 34°49' E 018°50'.
Warning: this ship's position is 12 days out of date.

Length 261 m; draft 9.1 m.

Type: Cargo ship. MMSI: 563036600.

Date/timePositionNaut miles runAvg speedWind from/ knotsBaromVisibWave heightAir tempDewpointWater temp
2018-Aug-03 18:54S 34°49' E 018°50'614.8
2018-Aug-03 18:28S 34°46' E 018°43'714.6
2018-Aug-03 17:58S 34°43' E 018°34'714.5
2018-Aug-03 17:30S 34°41' E 018°27'714.8
2018-Aug-03 17:00S 34°38' E 018°19'714.7
2018-Aug-03 16:30S 34°35' E 018°10'713.5
2018-Aug-03 16:01S 34°30' E 018°05'714.3
2018-Aug-03 15:31S 34°24' E 018°01'714.2
2018-Aug-03 15:00S 34°17' E 017°57'714.3
2018-Aug-03 14:30S 34°11' E 017°53'714.5
2018-Aug-03 14:00S 34°05' E 017°48'714.7
2018-Aug-03 13:30S 33°58' E 017°45'714.6
2018-Aug-03 13:00S 33°52' E 017°41'814.7
2018-Aug-03 12:27S 33°44' E 017°36'  

Dump ship's entire track history